• Join FlightAware (Why Join?)
  • Login
  • US Flag 
12:31PM EDT


 

Airport Tracker/Info


-or-


 

Live Flight TrackerFlight Track Log ✈ UAL906 ✈ 15-Jun-2013 ✈ EDDF / FRA - KORD

Flight Track Log - Related Links

Times and Time Zones

All times are in EDT time to prevent confusion due to time zone crossing. See the UAL906 flight status page for this flight to view local times or setup timezone preferences in your user account.

Time Position Orientation Groundspeed Altitude Reporting Facility
EDT Latitude Longitude Course Direction KTS MPH feet Rate Location/Type
06:56AM 50.0260 8.4990 270° West 178 205 2,200  Level FlightAware
06:56AM 50.0270 8.4810 275° West 184 212 2,700 2,040 Climbing FlightAware
06:56AM 50.0300 8.4460 278° West 180 207 3,600 1,380 Climbing FlightAware
06:57AM 50.0260 8.4060 261° West 213 245 4,000 1,020 Climbing FlightAware
06:57AM 50.0200 8.3600 259° West 240 276 4,600 900 Climbing FlightAware
06:57AM 50.0170 8.3330 260° West 263 303 4,700 1,080 Climbing FlightAware
06:58AM 50.0160 8.2660 269° West 295 339 5,600 1,920 Climbing FlightAware
06:58AM 50.0290 8.2180 293° West 308 354 6,500 2,580 Climbing FlightAware
06:59AM 50.0490 8.1550 296° West 314 361 7,700 2,280 Climbing FlightAware
06:59AM 50.0660 8.1060 298° West 325 374 8,600 1,920 Climbing FlightAware
07:00AM 50.1090 8.0200 308° West 324 373 10,000 1,260 Climbing FlightAware
07:01AM 50.1540 7.9360 310° West 341 392 10,700 1,560 Climbing FlightAware
07:02AM 50.2050 7.8370 309° West 347 399 12,600 2,160 Climbing FlightAware
07:02AM 50.2380 7.7720 308° West 351 404 13,700 1,860 Climbing FlightAware
07:03AM 50.2970 7.7020 323° Northwest 384 442 15,000 1,740 Climbing FlightAware
07:04AM 50.3720 7.6560 339° North 395 455 16,300 1,380 Climbing FlightAware
07:04AM 50.4390 7.6110 337° Northwest 409 471 17,000 1,320 Climbing FlightAware
07:05AM 50.5220 7.5540 336° Northwest 409 471 18,500 1,680 Climbing FlightAware
07:06AM 50.6060 7.4810 331° Northwest 406 467 19,700 1,620 Climbing FlightAware
07:07AM 50.6860 7.3980 327° Northwest 406 467 20,900 1,740 Climbing FlightAware
07:07AM 50.7490 7.3340 327° Northwest 401 461 22,400 1,860 Climbing FlightAware
07:08AM 50.8110 7.2690 326° Northwest 394 453 23,400 1,500 Climbing FlightAware
07:09AM 50.8630 7.1940 318° Northwest 377 434 24,400 1,260 Climbing FlightAware
07:10AM 50.9060 7.0910 304° West 379 436 25,200 900 Climbing FlightAware
07:10AM 50.9510 6.9760 302° West 397 457 25,800 900 Climbing FlightAware
07:11AM 51.0130 6.8170 302° West 407 468 26,900 1,140 Climbing FlightAware
07:12AM 51.0530 6.7160 302° West 412 474 27,800 1,080 Climbing FlightAware
07:13AM 51.1160 6.5960 310° West 426 490 28,600 900 Climbing FlightAware
07:13AM 51.1590 6.5170 311° West 432 497 29,100 900 Climbing FlightAware
07:14AM 51.2190 6.4080 311° West 436 502 29,800 900 Climbing FlightAware
07:15AM 51.2750 6.3070 312° West 440 506 30,400 840 Climbing FlightAware
07:16AM 51.3340 6.1990 311° West 445 512 31,000 1,080 Climbing FlightAware
07:16AM 51.3960 6.0850 311° West 437 503 32,100 1,200 Climbing FlightAware
07:17AM 51.4480 5.9870 310° West 433 498 32,800 960 Climbing FlightAware
07:18AM 51.4980 5.8960 311° West 433 498 33,400 840 Climbing FlightAware
07:18AM 51.5570 5.7840 310° West 433 498 34,000 360 Climbing FlightAware
07:19AM 51.6100 5.6860 311° West 433 498 34,000  Level FlightAware
07:20AM 51.6850 5.5440 310° West 433 498 34,000  Level FlightAware
07:21AM 51.7315 5.4428 310° West 486 559 34,000  Level FlightAware UK
07:21AM 51.7360 5.4470 310° West 432 497 34,000 -240 Level FlightAware
07:21AM 51.7726 5.3714 310° West 486 559 33,900  Descending FlightAware UK
07:21AM 51.7910 5.3430 310° West 429 494 34,000 120 Climbing FlightAware
07:22AM 51.8320 5.2650 310° West 427 491 34,000  Level FlightAware
07:22AM 51.8525 5.2274 310° West 482 555 34,000  Level FlightAware UK
07:23AM 51.8830 5.1680 310° West 427 491 34,000  Level FlightAware
07:23AM 51.9057 5.1246 310° West 480 552 34,000  Level FlightAware UK
07:23AM 51.9350 5.0680 310° West 428 493 34,000  Level FlightAware
07:24AM 51.9910 4.9600 310° West 427 491 34,000 -120 Level FlightAware
07:25AM 52.0342 4.8741 310° West 482 555 33,900  Descending FlightAware UK
07:25AM 52.0420 4.8630 310° West 427 491 34,000 120 Climbing FlightAware
07:25AM 52.0802 4.7862 310° West 484 557 34,000  Level FlightAware UK
07:25AM 52.0960 4.7580 310° West 425 489 34,000  Level FlightAware
07:26AM 52.1487 4.6541 310° West 484 557 34,000  Level FlightAware UK
07:26AM 52.1480 4.6560 310° West 425 489 34,000  Level FlightAware
07:27AM 52.1960 4.5620 310° West 423 487 34,000 -180 Level FlightAware
07:27AM 52.2024 4.5520 310° West 484 557 33,900  Descending FlightAware UK
07:28AM 52.2530 4.4490 310° West 422 486 34,000 60 Climbing FlightAware
07:28AM 52.3030 4.3500 310° West 420 483 34,000  Level FlightAware
07:29AM 52.3580 4.2410 310° West 420 483 34,000 -120 Level FlightAware
07:30AM 52.4094 4.1410 310° West 486 559 33,900  Descending FlightAware UK
07:30AM 52.4030 4.1520 310° West 418 481 34,000  Climbing FlightAware
07:30AM 52.4681 4.0239 310° West 482 555 33,900  Descending FlightAware UK
07:31AM 52.4720 4.0150 310° West 417 480 34,000 120 Climbing FlightAware
07:31AM 52.5260 3.9060 309° West 420 483 34,000  Level FlightAware
07:32AM 52.5926 3.7730 309° West 484 557 34,000  Level FlightAware UK
07:32AM 52.5980 3.7620 309° West 420 483 34,000 -240 Level FlightAware
07:33AM 52.6291 3.6984 309° West 478 550 33,900  Descending FlightAware UK
07:33AM 52.6470 3.6620 309° West 425 489 34,000 60 Climbing FlightAware
07:34AM 52.7031 3.5475 309° West 480 552 34,000  Level FlightAware UK
07:34AM 52.7030 3.5480 309° West 431 496 34,000 -180 Level FlightAware
07:34AM 52.7485 3.4546 309° West 482 555 33,900  Descending FlightAware UK
07:34AM 52.7510 3.4500 309° West 435 501 34,000 120 Climbing FlightAware
07:35AM 52.8040 3.3410 309° West 440 506 34,000  Level FlightAware
07:36AM 52.8620 3.2210 309° West 442 509 34,000 -120 Level FlightAware
07:36AM 52.9011 3.1411 309° West 484 557 33,900  Descending FlightAware UK
07:36AM 52.9120 3.1170 309° West 437 503 34,000  Climbing FlightAware
07:37AM 52.9464 3.0470 309° West 484 557 33,900  Descending FlightAware UK
07:37AM 52.9660 3.0040 309° West 440 506 34,000 60 Climbing FlightAware
07:38AM 53.0230 2.8850 309° West 443 510 34,000  Level FlightAware
07:38AM 53.0673 2.7924 309° West 488 562 34,000  Level FlightAware UK
07:39AM 53.0730 2.7810 309° West 444 511 34,000  Level FlightAware
07:39AM 53.1132 2.6955 309° West 488 562 34,000  Level FlightAware UK
07:39AM 53.1260 2.6700 309° West 447 514 34,000  Level FlightAware
07:40AM 53.1667 2.5823 309° West 492 566 34,000  Level FlightAware UK
07:40AM 53.1820 2.5500 309° West 449 517 34,000  Level FlightAware
07:40AM 53.2048 2.5001 309° West 492 566 34,000  Level FlightAware UK
07:41AM 53.2320 2.4320 309° West 446 513 34,000  Level FlightAware
07:41AM 53.2760 2.3160 302° West 447 514 34,000  Level FlightAware
07:42AM 53.3220 2.1930 302° West 448 516 34,000  Level FlightAware
07:43AM 53.3643 2.0805 302° West 492 566 34,000  Level FlightAware UK
07:43AM 53.3690 2.0690 302° West 451 519 34,000  Level FlightAware
07:43AM 53.4150 1.9460 302° West 452 520 34,000  Level FlightAware
07:44AM 53.4637 1.8144 302° West 492 566 34,000  Level FlightAware UK
07:44AM 53.4630 1.8160 302° West 452 520 34,000  Level FlightAware
07:45AM 53.5110 1.6870 302° West 454 522 34,000  Level FlightAware
07:45AM 53.5298 1.6363 302° West 492 566 34,000  Level FlightAware UK
07:46AM 53.5560 1.5650 302° West 456 525 34,000  Level FlightAware
07:46AM 53.6020 1.4400 302° West 457 526 34,000  Level FlightAware
07:47AM 53.6224 1.3838 302° West 494 568 34,000  Level FlightAware UK
07:47AM 53.6350 1.3510 302° West 457 526 34,000  Level FlightAware
07:48AM 53.6910 1.1970 302° West 459 528 34,000  Level FlightAware
07:48AM 53.7086 1.1477 302° West 498 573 34,000  Level FlightAware UK
07:48AM 53.7420 1.0560 302° West 459 528 34,000  Level FlightAware
07:49AM 53.7740 0.9650 301° West 459 528 34,000  Level FlightAware
07:49AM 53.8139 0.8545 301° West 492 566 34,000  Level FlightAware UK
07:50AM 53.8240 0.8270 301° West 460 529 34,000  Level FlightAware
07:50AM 53.8665 0.7073 301° West 490 564 34,000  Level FlightAware UK
07:50AM 53.8760 0.6820 301° West 462 532 34,000  Level FlightAware
07:51AM 53.9045 0.6006 301° West 462 532 34,000  Level FlightAware ADS-B
07:51AM 53.9391 0.5025 301° West 492 566 34,000 60 Level FlightAware UK
07:52AM 53.9740 0.4030 301° West 467 537 34,100 300 Climbing FlightAware
07:52AM 53.9981 0.3336 301° West 492 566 34,300 540 Climbing FlightAware UK
07:53AM 54.0180 0.2760 301° West 466 536 34,500 480 Climbing FlightAware
07:53AM 54.0371 0.2197 301° West 490 564 34,600 420 Climbing FlightAware UK
07:53AM 54.0630 0.1440 301° West 468 539 34,800 420 Climbing FlightAware
07:54AM 54.0952 0.0488 301° West 492 566 35,000 420 Climbing FlightAware UK
07:54AM 54.1090 0.0080 301° West 471 542 35,100 360 Climbing FlightAware
07:54AM 54.1278 -0.0475 301° West 494 568 35,200 420 Climbing FlightAware UK
07:55AM 54.1570 -0.1230 301° West 474 545 35,400 300 Climbing FlightAware
07:55AM 54.2120 -0.2510 306° West 475 547 35,600 240 Climbing FlightAware
07:56AM 54.2710 -0.3850 307° West 480 552 35,800 240 Climbing FlightAware
07:57AM 54.3210 -0.4980 307° West 479 551 36,000 180 Climbing FlightAware
07:57AM 54.3458 -0.5559 307° West 492 566 36,000  Level FlightAware UK
07:57AM 54.3770 -0.6270 307° West 480 552 36,000  Level FlightAware
07:58AM 54.4172 -0.7199 307° West 494 568 36,000  Level FlightAware UK
07:58AM 54.4350 -0.7620 307° West 482 555 36,000  Level FlightAware
07:59AM 54.4890 -0.8850 307° West 480 552 36,000  Level FlightAware
07:59AM 54.5357 -0.9954 307° West 492 566 36,000  Level FlightAware UK
08:00AM 54.5460 -1.0190 307° West 481 554 36,000  Level FlightAware
08:00AM 54.5909 -1.1247 307° West 490 564 36,000  Level FlightAware UK
08:00AM 54.5980 -1.1410 307° West 482 555 36,000  Level FlightAware
08:01AM 54.6459 -1.2538 307° West 492 566 36,000  Level FlightAware UK
08:01AM 54.6530 -1.2710 307° West 483 556 36,000  Level FlightAware
08:01AM 54.6855 -1.3469 307° West 492 566 36,000  Level FlightAware UK
08:02AM 54.7090 -1.4030 307° West 484 557 36,000  Level FlightAware
08:02AM 54.7642 -1.5343 307° West 492 566 36,000  Level FlightAware UK
08:02AM 54.7620 -1.5280 307° West 484 557 36,000  Level FlightAware
08:03AM 54.8190 -1.6653 307° West 494 568 36,000  Level FlightAware UK
08:03AM 54.8190 -1.6660 307° West 484 557 36,000  Level FlightAware
08:03AM 54.8539 -1.7643 307° West 496 571 36,000  Level FlightAware UK
08:04AM 54.8670 -1.8030 307° West 483 556 36,000  Level FlightAware
08:04AM 54.8867 -1.8655 307° West 496 571 36,000  Level FlightAware UK
08:04AM 54.9120 -1.9470 307° West 482 555 36,000  Level FlightAware
08:05AM 54.9371 -2.0280 307° West 494 568 36,000  Level FlightAware UK
08:05AM 54.9420 -2.0430 307° West 481 554 36,000  Level FlightAware
08:05AM 54.9807 -2.1714 307° West 494 568 36,000  Level FlightAware UK
08:06AM 54.9830 -2.1790 307° West 482 555 36,000  Level FlightAware
08:06AM 55.0181 -2.2947 307° West 496 571 36,000  Level FlightAware UK
08:06AM 55.0410 -2.3710 307° West 482 555 36,000 -120 Level FlightAware
08:07AM 55.0858 -2.5207 307° West 496 571 35,900  Descending FlightAware UK
08:07AM 55.0860 -2.5200 307° West 481 554 36,000  Climbing FlightAware
08:08AM 55.1285 -2.6645 307° West 496 571 35,900  Descending FlightAware UK
08:08AM 55.1330 -2.6810 307° West 480 552 36,000  Climbing FlightAware
08:08AM 55.1653 -2.7883 307° West 494 568 35,900  Descending FlightAware UK
08:09AM 55.1730 -2.8150 307° West 481 554 36,000 120 Climbing FlightAware
08:09AM 55.2140 -2.9530 298° West 481 554 36,000 -120 Level FlightAware
08:10AM 55.2502 -3.0776 298° West 492 566 35,900  Descending FlightAware UK
08:10AM 55.2580 -3.1030 298° West 481 554 36,000 120 Climbing FlightAware
08:11AM 55.2926 -3.2222 298° West 490 564 36,000  Level FlightAware UK
08:11AM 55.3289 -3.3470 297° West 492 566 36,000  Level FlightAware UK
08:11AM 55.3300 -3.3520 297° West 480 552 36,000 -240 Level FlightAware
08:12AM 55.3589 -3.4514 297° West 492 566 35,900  Descending FlightAware UK
08:12AM 55.3710 -3.4940 297° West 481 554 36,000 180 Climbing FlightAware
08:12AM 55.3887 -3.5559 297° West 494 568 36,000  Level FlightAware UK
08:13AM 55.4100 -3.6310 297° West 481 554 36,000  Level FlightAware
08:13AM 55.4487 -3.7651 297° West 494 568 36,000  Level FlightAware UK
08:13AM 55.4520 -3.7750 297° West 482 555 36,000  Level FlightAware
08:14AM 55.4800 -3.8740 297° West 481 554 36,000 -120 Level FlightAware
08:14AM 55.5083 -3.9753 297° West 492 566 35,900 -240 Descending FlightAware UK
08:15AM 55.5380 -4.0802 297° West 494 568 35,900 120 Level FlightAware UK
08:15AM 55.5470 -4.1160 297° West 480 552 36,000  Climbing FlightAware
08:15AM 55.5791 -4.2267 297° West 494 568 35,900  Descending FlightAware UK
08:16AM 55.6010 -4.3040 297° West 480 552 36,000 120 Climbing FlightAware
08:16AM 55.6202 -4.3742 297° West 496 571 36,000  Level FlightAware UK
08:17AM 55.6440 -4.4620 297° West 479 551 36,000 -120 Level FlightAware
08:17AM 55.6960 -4.6488 297° West 494 568 35,900  Descending FlightAware UK
08:17AM 55.6990 -4.6610 297° West 479 551 36,000  Climbing FlightAware
08:18AM 55.7248 -4.7544 297° West 494 568 35,900  Descending FlightAware UK
08:18AM 55.7370 -4.7990 297° West 479 551 36,000 60 Climbing FlightAware
08:19AM 55.7780 -4.9480 296° West 479 551 36,000  Level FlightAware
08:20AM 55.8150 -5.0880 295° West 479 551 36,000 -120 Level FlightAware
08:20AM 55.8621 -5.2624 295° West 494 568 35,900  Descending FlightAware UK
08:20AM 55.8600 -5.2550 295° West 478 550 36,000  Climbing FlightAware
08:21AM 55.8904 -5.3688 295° West 492 566 35,900  Descending FlightAware UK
08:21AM 55.8950 -5.3850 295° West 477 549 36,000  Climbing FlightAware
08:21AM 55.9187 -5.4750 295° West 490 564 35,900  Descending FlightAware UK
08:22AM 55.9380 -5.5490 295° West 477 549 36,000  Climbing FlightAware
08:22AM 55.9579 -5.6241 295° West 490 564 35,900  Descending FlightAware UK
08:22AM 55.9800 -5.7100 295° West 474 545 36,000  Climbing FlightAware
08:23AM 56.0193 -5.8593 295° West 492 566 35,900  Descending FlightAware UK
08:23AM 56.0220 -5.8700 295° West 474 545 36,000  Climbing FlightAware
08:24AM 56.0472 -5.9664 295° West 492 566 35,900  Descending FlightAware UK
08:24AM 56.0540 -5.9910 295° West 473 544 36,000  Climbing FlightAware
08:24AM 56.0749 -6.0735 295° West 492 566 35,900  Descending FlightAware UK
08:24AM 56.0960 -6.1550 295° West 474 545 36,000  Climbing FlightAware
08:25AM 56.1352 -6.3093 295° West 492 566 35,900  Descending FlightAware UK
08:25AM 56.1450 -6.3480 295° West 477 549 36,000 180 Climbing FlightAware
08:26AM 56.1625 -6.4172 295° West 492 566 36,000  Level FlightAware UK
08:26AM 56.1860 -6.5110 295° West 477 549 36,000  Level FlightAware
08:27AM 56.2172 -6.6333 295° West 492 566 36,000  Level FlightAware UK
08:27AM 56.2240 -6.6590 295° West 478 550 36,000  Level FlightAware
08:27AM 56.2443 -6.7418 295° West 492 566 36,000 -120 Level FlightAware UK
08:28AM 56.2714 -6.8501 294° West 488 562 35,900  Descending FlightAware UK
08:28AM 56.2730 -6.8560 294° West 478 550 36,000  Climbing FlightAware
08:28AM 56.2983 -6.9586 294° West 488 562 35,900  Descending FlightAware UK
08:28AM 56.3050 -6.9880 294° West 479 551 36,000 180 Climbing FlightAware
08:29AM 56.3250 -7.0676 294° West 490 564 36,000 -180 Level FlightAware UK
08:29AM 56.3521 -7.1768 294° West 490 564 35,900  Descending FlightAware UK
08:29AM 56.3600 -7.2110 294° West 480 552 36,000 180 Climbing FlightAware
08:30AM 56.3787 -7.2866 294° West 490 564 36,000  Level FlightAware UK
08:30AM 56.4000 -7.3740 294° West 481 554 36,000  Level FlightAware
08:31AM 56.4323 -7.5070 294° West 488 562 36,000  Level FlightAware UK
08:31AM 56.4350 -7.5200 294° West 481 554 36,000 -180 Level FlightAware
08:31AM 56.4641 -7.6389 294° West 488 562 35,900  Descending FlightAware UK
08:31AM 56.4760 -7.6890 294° West 482 555 36,000 180 Climbing FlightAware
08:32AM 56.4906 -7.7498 294° West 488 562 36,000  Level FlightAware UK
08:32AM 56.5120 -7.8400 294° West 483 556 36,000 -120 Level FlightAware
08:33AM 56.5435 -7.9724 294° West 488 562 35,900  Descending FlightAware UK
08:33AM 56.5440 -7.9740 294° West 485 558 36,000  Climbing FlightAware
08:33AM 56.5698 -8.0843 294° West 488 562 35,900  Descending FlightAware UK
08:34AM 56.5880 -8.1630 294° West 482 555 36,000  Climbing FlightAware
08:34AM 56.6225 -8.3088 294° West 492 566 35,900  Descending FlightAware UK
08:34AM 56.6220 -8.3100 294° West 483 556 36,000  Climbing FlightAware
08:35AM 56.6486 -8.4215 294° West 492 566 35,900 -120 Descending FlightAware UK
08:35AM 56.6745 -8.5346 293° West 490 564 35,900 120 Level FlightAware UK
08:35AM 56.6570 -8.4600 293° West 483 556 36,000 180 Climbing FlightAware
08:36AM 56.7005 -8.6478 293° West 492 566 36,000  Level FlightAware UK
08:36AM 56.7220 -8.7410 293° West 485 558 36,000  Level FlightAware
08:36AM 56.7263 -8.7612 293° West 492 566 36,000 -240 Level FlightAware UK
08:37AM 56.7523 -8.8746 293° West 494 568 35,900  Descending FlightAware UK
08:37AM 56.7620 -8.9190 293° West 484 557 36,000 120 Climbing FlightAware
08:37AM 56.7829 -9.0103 293° West 496 571 36,000  Level FlightAware UK
08:38AM 56.7870 -9.0280 293° West 483 556 36,000  Level FlightAware
08:39AM 56.8410 -9.2730 292° West 485 558 36,000  Level FlightAware
08:39AM 56.8750 -9.4250 292° West 485 558 36,000  Level FlightAware
08:40AM 56.9110 -9.5900 292° West 484 557 36,000  Level FlightAware
08:41AM 56.9590 -9.8100 292° West 487 560 36,000  Level FlightAware
08:42AM 56.9950 -9.9720 292° West 484 557 36,000  Level FlightAware
08:42AM 57.0330 -10.1310 294° West 484 557 36,000  Level FlightAware
08:43AM 57.0840 -10.2890 301° West 480 552 36,000  Level FlightAware
08:44AM 57.1290 -10.4040 306° West 485 558 36,000  Level FlightAware
08:44AM 57.1720 -10.5510 298° West 481 554 36,000  Level FlightAware
08:45AM 57.2240 -10.7540 295° West 483 556 36,000  Level FlightAware
08:46AM 57.2750 -10.9640 294° West 485 558 36,000  Level FlightAware
08:47AM 57.3170 -11.1390 294° West 485 558 36,000  Level FlightAware
08:48AM 57.3520 -11.2870 294° West 486 559 36,000  Level FlightAware
08:48AM 57.3930 -11.4590 294° West 485 558 36,000  Level FlightAware
08:49AM 57.4290 -11.6110 294° West 486 559 36,000  Level FlightAware
08:50AM 57.4660 -11.7720 293° West 486 559 36,000  Level FlightAware
08:51AM 57.5140 -11.9810 293° West 486 559 36,000  Level FlightAware
08:51AM 57.5470 -12.1220 294° West 487 560 36,000  Level FlightAware
08:52AM 57.5920 -12.3220 293° West 487 560 36,000  Level FlightAware
08:53AM 57.6200 -12.4440 293° West 487 560 36,000  Level FlightAware
08:54AM 57.6550 -12.5990 293° West 487 560 36,000  Level FlightAware
08:54AM 57.6830 -12.7210 293° West 487 560 36,000  Level FlightAware
08:55AM 57.7340 -12.9450 293° West 487 560 36,000  Level FlightAware
08:56AM 57.7720 -13.1140 293° West 487 560 36,000  Level FlightAware
08:57AM 57.8030 -13.2530 293° West 487 560 36,000  Level FlightAware
08:58AM 57.8310 -13.3750 293° West 487 560 36,000  Level FlightAware
08:59AM 57.8760 -13.5770 293° West 487 560 36,000  Level FlightAware
08:59AM 57.9050 -13.7030 293° West 487 560 36,000  Level FlightAware
09:00AM 57.9330 -13.8260 293° West 487 560 36,000  Level FlightAware
09:01AM 57.9680 -13.9850 293° West 487 560 36,000  Level FlightAware
09:03AM 58.0506 -14.4009 291° West  Level FlightAware Approximate
09:04AM 58.0939 -14.6225 290° West  Level FlightAware Approximate
09:05AM 58.1368 -14.8446 290° West  Level FlightAware Approximate
09:06AM 58.1793 -15.0673 290° West  Level FlightAware Approximate
09:07AM 58.2214 -15.2905 290° West  Level FlightAware Approximate
09:08AM 58.2631 -15.5143 290° West  Level FlightAware Approximate
09:09AM 58.3045 -15.7385 289° West  Level FlightAware Approximate
09:10AM 58.3455 -15.9633 289° West  Level FlightAware Approximate
09:11AM 58.3860 -16.1886 289° West  Level FlightAware Approximate
09:12AM 58.4262 -16.4144 289° West  Level FlightAware Approximate
09:13AM 58.4659 -16.6408 289° West  Level FlightAware Approximate
09:14AM 58.5053 -16.8676 288° West  Level FlightAware Approximate
09:15AM 58.5443 -17.0949 288° West  Level FlightAware Approximate
09:16AM 58.5828 -17.3228 288° West  Level FlightAware Approximate
09:17AM 58.6210 -17.5511 288° West  Level FlightAware Approximate
09:18AM 58.6587 -17.7800 288° West  Level FlightAware Approximate
09:19AM 58.6961 -18.0093 287° West  Level FlightAware Approximate
09:20AM 58.7330 -18.2392 287° West  Level FlightAware Approximate
09:21AM 58.7695 -18.4695 287° West  Level FlightAware Approximate
09:22AM 58.8056 -18.7003 287° West  Level FlightAware Approximate
09:23AM 58.8413 -18.9316 287° West  Level FlightAware Approximate
09:24AM 58.8766 -19.1633 287° West  Level FlightAware Approximate
09:24AM 59.0000 -20.0000 274° West 500 575 36,000  Level ETMS Enhanced Traffic Management System
09:25AM 58.9115 -19.3955 286° West  Level FlightAware Approximate
09:26AM 58.9460 -19.6282 286° West  Level FlightAware Approximate
09:27AM 58.9800 -19.8614 286° West  Level FlightAware Approximate
09:28AM 59.0037 -20.0978 274° West  Level FlightAware Approximate
09:29AM 59.0127 -20.3398 274° West  Level FlightAware Approximate
09:30AM 59.0523 -21.6182 273° West 500 575 36,000  Level FlightAware Transoceanic
09:31AM 59.0591 -21.8883 273° West 500 575 36,000  Level FlightAware Transoceanic
09:32AM 59.0653 -22.1586 272° West 500 575 36,000  Level FlightAware Transoceanic
09:33AM 59.0709 -22.4289 272° West 500 575 36,000  Level FlightAware Transoceanic
09:34AM 59.0760 -22.6993 272° West 500 575 36,000  Level FlightAware Transoceanic
09:35AM 59.0805 -22.9698 272° West 500 575 36,000  Level FlightAware Transoceanic
09:36AM 59.0844 -23.2404 272° West 500 575 36,000  Level FlightAware Transoceanic
09:37AM 59.0878 -23.5110 271° West 500 575 36,000  Level FlightAware Transoceanic
09:38AM 59.0906 -23.7816 271° West 500 575 36,000  Level FlightAware Transoceanic
09:39AM 59.0929 -24.0523 271° West 500 575 36,000  Level FlightAware Transoceanic
09:40AM 59.0946 -24.3231 271° West 500 575 36,000  Level FlightAware Transoceanic
09:41AM 59.0957 -24.5938 270° West 500 575 36,000  Level FlightAware Transoceanic
09:42AM 59.0963 -24.8646 270° West 500 575 36,000  Level FlightAware Transoceanic
09:43AM 59.0963 -25.1354 270° West 500 575 36,000  Level FlightAware Transoceanic
09:44AM 59.0957 -25.4062 270° West 500 575 36,000  Level FlightAware Transoceanic
09:45AM 59.0946 -25.6769 269° West 500 575 36,000  Level FlightAware Transoceanic
09:46AM 59.0929 -25.9477 269° West 500 575 36,000  Level FlightAware Transoceanic
09:47AM 59.0906 -26.2184 269° West 500 575 36,000  Level FlightAware Transoceanic
09:48AM 59.0878 -26.4890 269° West 500 575 36,000  Level FlightAware Transoceanic
09:49AM 59.0844 -26.7596 268° West 500 575 36,000  Level FlightAware Transoceanic
09:50AM 59.0805 -27.0302 268° West 500 575 36,000  Level FlightAware Transoceanic
09:51AM 59.0760 -27.3007 268° West 500 575 36,000  Level FlightAware Transoceanic
09:52AM 59.0709 -27.5711 268° West 500 575 36,000  Level FlightAware Transoceanic
09:53AM 59.0653 -27.8414 268° West 500 575 36,000  Level FlightAware Transoceanic
09:54AM 59.0591 -28.1117 267° West 500 575 36,000  Level FlightAware Transoceanic
09:55AM 59.0523 -28.3818 267° West 500 575 36,000  Level FlightAware Transoceanic
09:56AM 59.0450 -28.6518 267° West 500 575 36,000  Level FlightAware Transoceanic
09:57AM 59.0371 -28.9217 267° West 500 575 36,000  Level FlightAware Transoceanic
09:58AM 59.0287 -29.1915 266° West 500 575 36,000  Level FlightAware Transoceanic
09:59AM 59.0197 -29.4612 266° West 500 575 36,000  Level FlightAware Transoceanic
10:00AM 59.0101 -29.7307 266° West 500 575 36,000  Level FlightAware Transoceanic
10:01AM 59.0010 -29.9726 266° West  Level FlightAware Approximate
10:02AM 58.9916 -30.2145 266° West  Level FlightAware Approximate
10:03AM 59.0071 -30.1872 274° West  Level FlightAware Approximate
10:04AM 59.0159 -30.4293 274° West  Level FlightAware Approximate
10:05AM 59.0242 -30.6714 274° West  Level FlightAware Approximate
10:06AM 59.0320 -30.9137 274° West  Level FlightAware Approximate
10:07AM 59.0395 -31.1561 274° West  Level FlightAware Approximate
10:08AM 59.0464 -31.3986 273° West  Level FlightAware Approximate
10:09AM 59.0529 -31.6412 273° West  Level FlightAware Approximate
10:10AM 59.0590 -31.8839 273° West  Level FlightAware Approximate
10:11AM 59.0646 -32.1267 273° West  Level FlightAware Approximate
10:12AM 59.0697 -32.3695 272° West  Level FlightAware Approximate
10:13AM 59.0744 -32.6124 272° West  Level FlightAware Approximate
10:14AM 59.0787 -32.8554 272° West  Level FlightAware Approximate
10:15AM 59.0824 -33.0984 272° West  Level FlightAware Approximate
10:16AM 59.0858 -33.3415 272° West  Level FlightAware Approximate
10:17AM 59.0886 -33.5847 271° West  Level FlightAware Approximate
10:18AM 59.0911 -33.8278 271° West  Level FlightAware Approximate
10:19AM 59.0930 -34.0710 271° West  Level FlightAware Approximate
10:20AM 59.0945 -34.3143 271° West  Level FlightAware Approximate
10:21AM 59.0956 -34.5575 271° West  Level FlightAware Approximate
10:22AM 59.0962 -34.8007 270° West  Level FlightAware Approximate
10:23AM 59.0964 -35.0440 270° West  Level FlightAware Approximate
10:24AM 59.0960 -35.2873 270° West  Level FlightAware Approximate
10:24AM 59.1167 -35.7333 269° West 480 552 36,000  Level Gander Center
10:25AM 59.0953 -35.5305 270° West  Level FlightAware Approximate
10:25AM 59.1167 -35.9667 270° West 480 552 36,000  Level Gander Center
10:26AM 59.0941 -35.7737 270° West  Level FlightAware Approximate
10:26AM 59.1167 -36.2167 270° West 480 552 36,000  Level Gander Center
10:27AM 59.0924 -36.0169 269° West  Level FlightAware Approximate
10:27AM 59.1167 -36.4833 270° West 470 541 36,000  Level Gander Center
10:28AM 59.0902 -36.2601 269° West  Level FlightAware Approximate
10:28AM 59.1167 -36.7333 270° West 470 541 36,000  Level Gander Center
10:29AM 59.0877 -36.5033 269° West  Level FlightAware Approximate
10:29AM 59.1000 -36.9667 262° West 470 541 36,000  Level Gander Center
10:30AM 59.1000 -37.2500 270° West 470 541 36,000  Level Gander Center
10:31AM 59.1000 -37.4833 270° West 470 541 36,000  Level Gander Center
10:32AM 59.0833 -37.7333 263° West 470 541 36,000  Level Gander Center
10:33AM 59.0833 -38.0000 270° West 470 541 36,000  Level Gander Center
10:34AM 59.0833 -38.2500 270° West 470 541 36,000  Level Gander Center
10:35AM 59.0667 -38.4833 262° West 470 541 36,000  Level Gander Center
10:36AM 59.0500 -38.7333 263° West 460 529 36,000  Level Gander Center
10:37AM 59.0667 -38.9667 278° West 470 541 36,000  Level Gander Center
10:38AM 59.0500 -39.2333 263° West 470 541 36,000  Level Gander Center
10:39AM 59.0500 -39.4833 270° West 470 541 36,000  Level Gander Center
10:40AM 59.0333 -39.7333 263° West 460 529 36,000  Level Gander Center
10:41AM 59.0000 -39.9833 256° West 470 541 36,000  Level Gander Center
10:42AM 58.9833 -40.1833 261° West 470 541 36,000  Level Gander Center
10:43AM 58.9500 -40.4500 256° West 460 529 36,000  Level Gander Center
10:44AM 58.9167 -40.6667 253° West 460 529 36,000  Level Gander Center
10:45AM 58.8833 -40.8833 254° West 460 529 36,000  Level Gander Center
10:46AM 58.8333 -41.1167 248° West 450 518 36,000  Level Gander Center
10:47AM 58.7833 -41.3333 246° West 450 518 36,000  Level Gander Center
10:48AM 58.7667 -41.5833 263° West 450 518 36,000  Level Gander Center
10:49AM 58.7167 -41.8000 246° West 450 518 36,000  Level Gander Center
10:50AM 58.6833 -42.0333 255° West 450 518 36,000  Level Gander Center
10:51AM 58.6333 -42.2500 246° West 450 518 36,000  Level Gander Center
10:52AM 58.6000 -42.5000 256° West 450 518 36,000  Level Gander Center
10:53AM 58.5667 -42.7167 254° West 450 518 36,000  Level Gander Center
10:54AM 58.5333 -42.9333 254° West 440 506 36,000  Level Gander Center
10:55AM 58.4833 -43.1500 246° West 440 506 36,000  Level Gander Center
10:56AM 58.4500 -43.3667 254° West 440 506 36,000  Level Gander Center
10:57AM 58.4167 -43.5833 254° West 440 506 36,000  Level Gander Center
10:58AM 58.3667 -43.8000 246° West 440 506 36,000  Level Gander Center
10:59AM 58.3333 -44.0167 254° West 440 506 36,000  Level Gander Center
11:00AM 58.3000 -44.2167 252° West 440 506 36,000  Level Gander Center
11:01AM 58.2333 -44.4500 242° Southwest 440 506 36,000  Level Gander Center
11:02AM 58.2000 -44.6500 253° West 440 506 36,000  Level Gander Center
11:03AM 58.1500 -44.8667 246° West 440 506 36,000  Level Gander Center
11:04AM 58.1167 -45.0833 254° West 440 506 36,000  Level Gander Center
11:05AM 58.0667 -45.3000 247° West 440 506 36,000  Level Gander Center
11:06AM 58.0333 -45.5333 255° West 440 506 36,000  Level Gander Center
11:07AM 57.9833 -45.7500 247° West 440 506 36,000  Level Gander Center
11:08AM 57.9500 -45.9500 253° West 440 506 36,000  Level Gander Center
11:09AM 57.9000 -46.1667 247° West 440 506 36,000  Level Gander Center
11:10AM 57.8667 -46.3833 254° West 440 506 36,000  Level Gander Center
11:11AM 57.8167 -46.5833 245° Southwest 440 506 36,000  Level Gander Center
11:12AM 57.7500 -46.8000 240° Southwest 440 506 36,000  Level Gander Center
11:13AM 57.7167 -47.0000 253° West 440 506 36,000  Level Gander Center
11:14AM 57.6667 -47.2167 247° West 440 506 36,000  Level Gander Center
11:15AM 57.6167 -47.4167 245° Southwest 440 506 36,000  Level Gander Center
11:16AM 57.5833 -47.6500 255° West 440 506 36,000  Level Gander Center
11:17AM 57.5333 -47.8667 247° West 440 506 36,000  Level Gander Center
11:18AM 57.4833 -48.0667 245° Southwest 440 506 36,000  Level Gander Center
11:19AM 57.4333 -48.2667 245° Southwest 440 506 36,000  Level Gander Center
11:20AM 57.4000 -48.4833 254° West 440 506 36,000  Level Gander Center
11:21AM 57.3500 -48.6833 245° Southwest 440 506 36,000  Level Gander Center
11:22AM 57.2833 -48.8833 238° Southwest 440 506 36,000  Level Gander Center
11:23AM 57.2333 -49.1000 247° West 440 506 36,000  Level Gander Center
11:24AM 57.1833 -49.3000 245° Southwest 440 506 36,000  Level Gander Center
11:25AM 57.1333 -49.5000 245° Southwest 440 506 36,000  Level Gander Center
11:26AM 57.0833 -49.7000 245° Southwest 440 506 36,000  Level Gander Center
11:27AM 57.0333 -49.9000 245° Southwest 440 506 36,000  Level Gander Center
11:27AM 57.0167 -50.0000 253° West 440 506 36,000  Level Gander Center
11:28AM 56.9833 -50.2000 253° West 440 506 36,000  Level Gander Center
11:31AM 56.8954 -50.5839 247° West  Level FlightAware Approximate
11:38AM 56.5425 -52.0594 247° West  Level FlightAware Approximate
11:39AM 56.4907 -52.2679 246° West  Level FlightAware Approximate
11:40AM 56.4386 -52.4759 246° West  Level FlightAware Approximate
11:41AM 56.3860 -52.6833 245° Southwest  Level FlightAware Approximate
11:42AM 56.3332 -52.8901 245° Southwest  Level FlightAware Approximate
11:43AM 56.2800 -53.0963 245° Southwest  Level FlightAware Approximate
11:44AM 56.2264 -53.3020 245° Southwest  Level FlightAware Approximate
11:45AM 56.1725 -53.5070 245° Southwest  Level FlightAware Approximate
11:46AM 56.1183 -53.7116 245° Southwest  Level FlightAware Approximate
11:47AM 56.0637 -53.9155 244° Southwest  Level FlightAware Approximate
11:48AM 56.0088 -54.1188 244° Southwest  Level FlightAware Approximate
11:49AM 55.9536 -54.3216 244° Southwest  Level FlightAware Approximate
11:50AM 55.8979 -54.5242 244° Southwest  Level FlightAware Approximate
11:51AM 55.8428 -54.7265 244° Southwest  Level FlightAware Approximate
11:52AM 55.7873 -54.9282 244° Southwest  Level FlightAware Approximate
11:53AM 55.7314 -55.1293 244° Southwest  Level FlightAware Approximate
11:54AM 55.6753 -55.3298 244° Southwest  Level FlightAware Approximate
11:55AM 55.6188 -55.5297 243° Southwest  Level FlightAware Approximate
11:56AM 55.5620 -55.7291 243° Southwest  Level FlightAware Approximate
11:56AM 55.7500 -56.1500 250° West 440 506 36,000  Level Gander Center
11:57AM 55.5196 -55.9390 250° West  Level Estimated
11:57AM 55.7000 -56.3333 244° Southwest 440 506 36,000  Level Gander Center
11:58AM 55.4769 -56.1485 250° West  Level Estimated
11:58AM 55.6667 -56.5500 255° West 450 518 36,000  Level Gander Center
11:59AM 55.4337 -56.3576 250° West  Level Estimated
11:59AM 55.6000 -56.7500 240° Southwest 450 518 36,000  Level Gander Center
12:00PM 55.3903 -56.5661 250° West  Level Estimated
12:00PM 55.5667 -56.9333 252° West 440 506 36,000  Level Gander Center
12:01PM 55.3464 -56.7743 250° West  Level Estimated
12:01PM 55.5167 -57.1500 248° West 440 506 36,000  Level Gander Center
12:02PM 55.3023 -56.9817 250° West  Level Estimated
12:02PM 55.5000 -57.2167 246° West 440 506 36,000  Level Gander Center
12:03PM 55.4667 -57.4167 254° West 440 506 36,000  Level Gander Center
12:04PM 55.4167 -57.6333 248° West 440 506 36,000  Level Gander Center
12:04PM 55.3833 -57.7500 243° Southwest 450 518 36,000  Level Gander Center
12:05PM 55.3667 -57.8500 254° West 450 518 36,000  Level Gander Center
12:05PM 55.3333 -57.9667 243° Southwest 450 518 36,000  Level Gander Center
12:06PM 55.3333 -58.0167 270° West 450 518 36,000  Level Gander Center
12:06PM 55.3000 -58.1667 249° West 450 518 36,000  Level Gander Center
12:07PM 55.2500 -58.3500 244° Southwest 450 518 36,000  Level Gander Center
12:08PM 55.2167 -58.4333 235° Southwest 450 518 36,000  Level Gander Center
12:09PM 55.1667 -58.6500 248° West 450 518 36,000  Level Gander Center
12:10PM 55.1333 -58.8500 254° West 450 518 36,000  Level Gander Center
12:11PM 55.0833 -59.0667 248° West 450 518 36,000  Level Gander Center
12:12PM 55.0333 -59.2667 247° West 460 529 36,000  Level Gander Center
12:13PM 54.9833 -59.4500 245° Southwest 460 529 36,000  Level Gander Center
12:14PM 54.9167 -59.6833 244° Southwest 460 529 36,000  Level Gander Center
12:15PM 54.8833 -59.8667 253° West 460 529 36,000  Level Gander Center
12:16PM 54.8333 -60.1000 250° West 460 529 36,000  Level Gander Center
12:16PM 54.8000 -60.2167 244° Southwest 460 529 36,000  Level Gander Center
12:17PM 54.7500 -60.4167 247° West 460 529 36,000 180 Level Gander Center
12:18PM 54.7167 -60.4667 221° Southwest 460 529 36,300 780 Climbing Gander Center
12:19PM 54.6667 -60.6833 248° West 460 529 37,100 720 Climbing Gander Center
12:19PM 54.6333 -60.8167 247° West 460 529 37,500 480 Climbing Gander Center
12:20PM 54.5833 -61.0167 247° West 460 529 37,900 240 Climbing Gander Center
12:21PM 54.5333 -61.2167 247° West 470 541 38,000  Climbing Gander Center
12:22PM 54.4667 -61.4333 242° Southwest 470 541 38,000  Level Gander Center
12:23PM 54.4500 -61.5167 251° West 470 541 38,000  Level Gander Center
12:24PM 54.4000 -61.6833 243° Southwest 470 541 38,000  Level Gander Center
12:25PM 54.3500 -61.9167 250° West 470 541 38,000  Level Gander Center
12:26PM 54.2833 -62.1167 240° Southwest 470 541 38,000  Level Gander Center
12:26PM 54.2500 -62.2333 244° Southwest 470 541 38,000  Level Gander Center
12:27PM 54.2000 -62.4167 245° Southwest 470 541 38,000  Level Gander Center
12:28PM 54.1833 -62.5167 254° West 470 541 38,000  Level Gander Center
12:29PM 54.1167 -62.7000 238° Southwest 470 541 38,000  Level Gander Center
12:29PM 54.0833 -62.8167 244° Southwest 470 541 38,000  Level Gander Center
12:30PM 54.0167 -63.0500 244° Southwest 470 541 38,000  Level Gander Center
12:31PM 53.9667 -63.2167 243° Southwest 470 541 38,000  Level Gander Center
12:32PM 53.9167 -63.4333 249° West 470 541 38,000  Level Gander Center
12:33PM 53.8333 -63.6333 235° Southwest 470 541 38,000  Level Gander Center
12:34PM 53.7833 -63.8333 247° West 470 541 38,000  Level Gander Center
12:35PM 53.7333 -64.0167 245° Southwest 470 541 38,000  Level Gander Center
12:36PM 53.6833 -64.2167 247° West 480 552 38,000  Level Gander Center
12:37PM 53.6000 -64.4333 237° Southwest 480 552 38,000  Level Gander Center
12:38PM 53.5500 -64.6333 247° West 480 552 38,000  Level Gander Center
12:39PM 53.4833 -64.8167 239° Southwest 480 552 38,000  Level Gander Center
12:40PM 53.4167 -65.0167 241° Southwest 480 552 38,000  Level Gander Center
12:41PM 53.3500 -65.2333 243° Southwest 480 552 38,000  Level Gander Center
12:42PM 53.3000 -65.4167 246° West 490 564 38,000  Level Gander Center
12:43PM 53.2333 -65.6333 243° Southwest 490 564 38,000  Level Gander Center
12:44PM 53.1667 -65.8333 241° Southwest 480 552 38,000  Level Gander Center
12:45PM 53.1000 -66.0167 239° Southwest 480 552 38,000  Level Gander Center
12:46PM 53.0500 -66.2000 246° West 470 541 38,000  Level Gander Center
12:47PM 52.9667 -66.4000 235° Southwest 480 552 38,000  Level Gander Center
12:48PM 52.9167 -66.5333 238° Southwest 470 541 38,000  Level Montreal Center
12:49PM 52.8667 -66.7167 246° West 480 552 38,000  Level Montreal Center
12:50PM 52.7833 -66.9000 233° Southwest 480 552 38,000  Level Montreal Center
12:51PM 52.7167 -67.0833 239° Southwest 470 541 38,000  Level Montreal Center
12:52PM 52.6667 -67.2833 248° West 470 541 38,000  Level Montreal Center
12:53PM 52.6000 -67.4667 239° Southwest 480 552 38,000  Level Montreal Center
12:54PM 52.5333 -67.6833 243° Southwest 470 541 38,000  Level Montreal Center
12:55PM 52.4500 -67.8500 231° Southwest 470 541 38,000  Level Montreal Center
12:56PM 52.4000 -68.0667 249° West 470 541 38,000  Level Montreal Center
12:57PM 52.3333 -68.2333 237° Southwest 470 541 38,000  Level Montreal Center
12:58PM 52.2667 -68.4167 239° Southwest 470 541 38,000  Level Montreal Center
12:59PM 52.2000 -68.6000 239° Southwest 470 541 38,000  Level Montreal Center
01:00PM 52.1167 -68.7667 231° Southwest 460 529 38,000  Level Montreal Center
01:01PM 52.0333 -68.9500 234° Southwest 470 541 38,000  Level Montreal Center
01:02PM 51.9667 -69.1333 240° Southwest 480 552 38,000  Level Montreal Center
01:03PM 51.8833 -69.3000 231° Southwest 470 541 38,000  Level Montreal Center
01:04PM 51.8167 -69.4833 240° Southwest 470 541 38,000  Level Montreal Center
01:05PM 51.7333 -69.6500 231° Southwest 480 552 38,000  Level Montreal Center
01:06PM 51.6667 -69.8333 240° Southwest 480 552 38,000  Level Montreal Center
01:07PM 51.5667 -70.0000 226° Southwest 480 552 38,000  Level Montreal Center
01:08PM 51.5000 -70.1833 240° Southwest 460 529 38,000  Level Montreal Center
01:09PM 51.4167 -70.3500 231° Southwest 470 541 38,000  Level Montreal Center
01:10PM 51.3500 -70.5167 237° Southwest 480 552 38,000  Level Montreal Center
01:11PM 51.2667 -70.7167 236° Southwest 480 552 38,000  Level Montreal Center
01:12PM 51.2000 -70.8833 237° Southwest 480 552 38,000  Level Montreal Center
01:13PM 51.1333 -71.0500 238° Southwest 480 552 38,000  Level Montreal Center
01:14PM 51.0500 -71.2167 232° Southwest 480 552 38,000  Level Montreal Center
01:20PM 50.6060 -72.2840 232° Southwest 479 551 38,000  Level FlightAware
01:21PM 50.5360 -72.4350 234° Southwest 479 551 38,000  Level FlightAware
01:22PM 50.4930 -72.5280 234° Southwest 479 551 38,000  Level FlightAware
01:23PM 50.4080 -72.7230 236° Southwest 475 547 38,000  Level FlightAware
01:24PM 50.3460 -72.8560 234° Southwest 474 545 38,000  Level FlightAware
01:24PM 50.3070 -72.9410 234° Southwest 474 545 38,000  Level FlightAware
01:25PM 50.2520 -73.0590 234° Southwest 474 545 38,000  Level FlightAware
01:26PM 50.2120 -73.1440 234° Southwest 474 545 38,000  Level FlightAware
01:27PM 50.1610 -73.2550 234° Southwest 474 545 38,000  Level FlightAware
01:27PM 50.1200 -73.3420 234° Southwest 474 545 38,000  Level FlightAware
01:28PM 50.0700 -73.4500 234° Southwest 474 545 38,000  Level FlightAware
01:28PM 49.9833 -73.6167 234° Southwest 460 529 38,000  Level Montreal Center
01:29PM 49.9167 -73.7667 235° Southwest 460 529 38,000  Level Montreal Center
01:30PM 49.8333 -73.9333 232° Southwest 460 529 38,000  Level Montreal Center
01:31PM 49.7500 -74.0833 229° Southwest 460 529 38,000  Level Montreal Center
01:32PM 49.7000 -74.2500 245° Southwest 460 529 38,000  Level Montreal Center
01:33PM 49.6167 -74.4167 232° Southwest 460 529 38,000  Level Montreal Center
01:34PM 49.5333 -74.5667 229° Southwest 460 529 38,000  Level Montreal Center
01:35PM 49.4500 -74.7167 230° Southwest 470 541 38,000  Level Montreal Center
01:36PM 49.3667 -74.8833 233° Southwest 460 529 38,000  Level Montreal Center
01:37PM 49.3000 -75.0667 241° Southwest 460 529 38,000  Level Montreal Center
01:38PM 49.2167 -75.2000 226° Southwest 460 529 38,000  Level Montreal Center
01:39PM 49.1333 -75.3833 235° Southwest 470 541 38,000  Level Montreal Center
01:41PM 49.0344 -75.5815 233° Southwest  Level FlightAware Approximate
01:41PM 48.9833 -75.6833 233° Southwest 470 541 38,000  Level Montreal Center
01:42PM 48.9000 -75.8333 230° Southwest 470 541 38,000  Level Montreal Center
01:43PM 48.8167 -76.0000 233° Southwest 460 529 38,000  Level Montreal Center
01:44PM 48.7333 -76.1500 230° Southwest 460 529 38,000  Level Montreal Center
01:45PM 48.6667 -76.3000 236° Southwest 450 518 38,000  Level Montreal Center
01:46PM 48.5833 -76.4500 230° Southwest 450 518 38,000  Level Montreal Center
01:47PM 48.5000 -76.6000 230° Southwest 460 529 38,000  Level Montreal Center
01:53PM 48.0330 -77.4930 230° Southwest 477 549 38,000  Level FlightAware
01:54PM 47.9730 -77.6020 231° Southwest 476 548 38,000  Level FlightAware
01:55PM 47.9140 -77.7110 231° Southwest 473 544 38,000  Level FlightAware
01:56PM 47.8360 -77.8510 230° Southwest 473 544 38,000  Level FlightAware
01:56PM 47.7930 -77.9270 230° Southwest 473 544 38,000  Level FlightAware
01:57PM 47.7370 -78.0270 230° Southwest 473 544 38,000  Level FlightAware
01:58PM 47.6680 -78.1550 231° Southwest 450 518 38,000  Level FlightAware
01:58PM 47.6270 -78.2280 230° Southwest 450 518 38,000  Level FlightAware
01:59PM 47.5720 -78.3240 230° Southwest 450 518 38,000  Level FlightAware
02:00PM 47.5300 -78.3980 230° Southwest 450 518 38,000  Level FlightAware
02:01PM 47.4580 -78.5250 230° Southwest 450 518 38,000  Level FlightAware
02:01PM 47.4170 -78.5970 230° Southwest 450 518 38,000  Level FlightAware
02:02PM 47.3660 -78.6870 230° Southwest 450 518 38,000  Level FlightAware
02:07PM 46.9300 -79.4480 230° Southwest 453 521 38,000  Level FlightAware
02:08PM 46.8510 -79.5830 229° Southwest 452 520 38,000  Level FlightAware
02:08PM 46.8150 -79.6450 230° Southwest 451 519 38,000  Level FlightAware
02:09PM 46.7530 -79.7490 229° Southwest 451 519 38,000  Level FlightAware
02:10PM 46.6980 -79.8430 230° Southwest 451 519 38,000  Level FlightAware
02:10PM 46.6350 -79.9480 229° Southwest 452 520 38,000  Level FlightAware
02:11PM 46.6020 -80.0040 229° Southwest 452 520 38,000  Level FlightAware
02:12PM 46.5270 -80.1300 229° Southwest 452 520 38,000  Level FlightAware
02:13PM 46.4600 -80.2410 229° Southwest 448 516 38,000  Level FlightAware
02:13PM 46.3900 -80.3570 229° Southwest 446 513 38,000  Level FlightAware
02:14PM 46.3360 -80.4470 229° Southwest 445 512 38,000  Level FlightAware
02:15PM 46.2780 -80.5420 229° Southwest 444 511 38,000  Level FlightAware
02:15PM 46.2260 -80.6270 229° Southwest 444 511 38,000  Level FlightAware
02:16PM 46.1420 -80.7640 229° Southwest 442 509 38,000  Level FlightAware
02:17PM 46.0850 -80.8570 229° Southwest 442 509 38,000  Level FlightAware
02:18PM 46.0320 -80.9430 228° Southwest 442 509 38,000  Level FlightAware
02:19PM 45.9700 -81.0430 228° Southwest 442 509 38,000  Level FlightAware
02:19PM 45.9160 -81.1310 229° Southwest 443 510 38,000  Level FlightAware
02:20PM 45.8590 -81.2220 228° Southwest 444 511 38,000  Level FlightAware
02:21PM 45.8120 -81.2970 228° Southwest 443 510 38,000  Level FlightAware
02:21PM 45.7390 -81.4140 228° Southwest 441 507 38,000  Level FlightAware
02:22PM 45.6810 -81.5050 228° Southwest 439 505 38,000  Level FlightAware
02:23PM 45.6200 -81.6030 228° Southwest 439 505 38,000  Level FlightAware
02:24PM 45.5470 -81.7170 228° Southwest 439 505 38,000  Level FlightAware
02:24PM 45.5150 -81.7670 228° Southwest 439 505 38,000  Level FlightAware
02:25PM 45.4170 -81.9220 228° Southwest 440 506 38,000  Level FlightAware
02:26PM 45.3590 -82.0130 228° Southwest 441 507 38,000  Level FlightAware
02:27PM 45.3000 -82.1030 227° Southwest 442 509 38,000  Level FlightAware
02:27PM 45.2370 -82.2010 228° Southwest 446 513 38,000  Level FlightAware
02:28PM 45.1820 -82.2870 228° Southwest 448 516 38,000  Level FlightAware
02:29PM 45.1270 -82.3710 227° Southwest 448 516 38,000  Level FlightAware
02:29PM 45.0650 -82.4660 227° Southwest 446 513 38,000  Level FlightAware
02:30PM 45.0060 -82.5570 227° Southwest 443 510 38,000  Level FlightAware
02:31PM 44.9530 -82.6460 230° Southwest 434 499 38,000  Level FlightAware
02:31PM 44.9190 -82.7140 235° Southwest 431 496 38,000  Level FlightAware
02:32PM 44.8550 -82.8490 236° Southwest 427 491 38,000  Level FlightAware
02:33PM 44.8110 -82.9440 237° Southwest 424 488 38,000  Level FlightAware
02:34PM 44.7640 -83.0420 236° Southwest 422 486 38,000  Level FlightAware
02:34PM 44.7210 -83.1340 237° Southwest 423 487 38,000  Level FlightAware
02:35PM 44.6740 -83.2320 236° Southwest 424 488 38,000  Level FlightAware
02:36PM 44.6280 -83.3290 236° Southwest 424 488 38,000  Level FlightAware
02:37PM 44.5810 -83.4270 236° Southwest 425 489 38,000  Level FlightAware
02:37PM 44.5410 -83.5100 236° Southwest 425 489 38,000  Level FlightAware
02:38PM 44.4920 -83.6110 236° Southwest 427 491 38,000  Level FlightAware
02:39PM 44.4440 -83.7100 236° Southwest 429 494 38,000  Level FlightAware
02:39PM 44.3960 -83.8100 236° Southwest 431 496 38,000 -300 Level FlightAware
02:40PM 44.3350 -83.9350 236° Southwest 434 499 37,600 -1,020 Descending FlightAware
02:41PM 44.2860 -84.0350 236° Southwest 444 511 36,400 -1,140 Descending FlightAware
02:42PM 44.2360 -84.1360 235° Southwest 446 513 36,000 -300 Descending FlightAware
02:42PM 44.1890 -84.2320 236° Southwest 447 514 36,000  Level FlightAware
02:43PM 44.1460 -84.3190 235° Southwest 448 516 36,000 -180 Level FlightAware
02:44PM 44.0910 -84.4290 235° Southwest 447 514 35,800 -780 Descending FlightAware
02:44PM 44.0390 -84.5330 235° Southwest 454 522 34,900 -960 Descending FlightAware
02:46PM 43.9660 -84.6790 235° Southwest 457 526 34,000 -960 Descending FlightAware
02:46PM 43.8990 -84.8130 235° Southwest 460 529 33,100 -1,080 Descending FlightAware
02:47PM 43.8450 -84.9210 235° Southwest 461 531 32,500 -660 Descending FlightAware
02:48PM 43.7970 -85.0140 234° Southwest 456 525 32,200 -420 Descending FlightAware
02:48PM 43.7450 -85.1170 235° Southwest 455 524 32,000 -180 Descending FlightAware
02:49PM 43.6810 -85.2090 226° Southwest 470 541 32,000  Level FlightAware
02:50PM 43.6030 -85.2450 198° South 489 563 32,000  Level FlightAware
02:51PM 43.5040 -85.2750 192° South 491 565 32,000  Level FlightAware
02:51PM 43.4130 -85.3180 199° South 478 550 32,000  Level FlightAware
02:52PM 43.3460 -85.4020 222° Southwest 461 531 32,000  Level FlightAware
02:53PM 43.2940 -85.5060 236° Southwest 459 528 32,000 -300 Level FlightAware
02:53PM 43.2460 -85.6020 236° Southwest 452 520 31,600 -1,560 Descending FlightAware
02:54PM 43.1960 -85.7000 235° Southwest 444 511 29,900 -1,740 Descending FlightAware
02:55PM 43.1470 -85.7950 235° Southwest 444 511 29,200 -1,080 Descending FlightAware
02:56PM 43.0960 -85.8950 235° Southwest 436 502 28,400 -1,620 Descending FlightAware
02:56PM 43.0500 -85.9840 235° Southwest 425 489 27,000 -2,040 Descending FlightAware
02:57PM 43.0060 -86.0680 234° Southwest 416 479 25,700 -1,920 Descending FlightAware
02:58PM 42.9630 -86.1510 235° Southwest 405 466 24,500 -1,320 Descending FlightAware
02:58PM 42.9080 -86.2560 234° Southwest 408 470 23,800 -1,260 Descending FlightAware
02:59PM 42.8670 -86.3350 235° Southwest 398 458 22,700 -2,100 Descending FlightAware
03:00PM 42.8180 -86.4280 234° Southwest 397 457 20,900 -2,520 Descending FlightAware
03:01PM 42.7620 -86.5340 234° Southwest 405 466 18,500 -2,700 Descending FlightAware
03:02PM 42.6980 -86.6560 235° Southwest 402 463 16,000 -2,700 Descending FlightAware
03:02PM 42.6560 -86.7350 234° Southwest 393 452 14,300 -2,580 Descending FlightAware
03:03PM 42.6110 -86.8210 235° Southwest 388 447 12,400 -2,340 Descending FlightAware
03:04PM 42.5520 -86.9310 234° Southwest 373 429 10,400 -1,740 Descending FlightAware
03:04PM 42.5240 -86.9840 234° Southwest 371 427 10,000 -480 Descending FlightAware
03:05PM 42.4960 -87.0350 233° Southwest 373 429 10,000  Level FlightAware
03:05PM 42.4870 -87.0530 236° Southwest 373 429 10,000  Level FlightAware
03:06PM 42.4560 -87.1160 236° Southwest 344 396 10,000 -120 Level FlightAware
03:06PM 42.4410 -87.1620 246° West 308 354 9,900 -480 Descending FlightAware
03:06PM 42.4260 -87.2180 250° West 294 338 9,600 -600 Descending FlightAware
03:07PM 42.4190 -87.2450 251° West 293 337 9,400 -780 Descending FlightAware
03:07PM 42.4060 -87.2850 246° West 295 339 9,100 -780 Descending FlightAware
03:07PM 42.3880 -87.3050 219° Southwest 297 342 9,000 -240 Descending FlightAware
03:08PM 42.3710 -87.3120 197° South 298 343 9,000  Level FlightAware
03:08PM 42.3630 -87.3120 180° South 298 343 9,000  Level FlightAware
03:08PM 42.3130 -87.3090 177° South 301 346 9,000  Level FlightAware
03:09PM 42.2900 -87.3080 178° South 300 345 9,000  Level FlightAware
03:09PM 42.2600 -87.3060 177° South 297 342 9,000 -120 Level FlightAware
03:09PM 42.2190 -87.3040 178° South 295 339 8,900 -720 Descending FlightAware
03:10PM 42.1780 -87.3010 177° South 291 335 8,300 -1,200 Descending FlightAware
03:10PM 42.1490 -87.2990 177° South 285 328 7,900 -1,260 Descending FlightAware
03:10PM 42.1390 -87.2990 180° South 284 327 7,700 -1,200 Descending FlightAware
03:11PM 42.0790 -87.2950 177° South 275 316 6,800 -1,320 Descending FlightAware
03:12PM 42.0430 -87.2910 175° South 275 316 6,100 -1,140 Descending FlightAware
03:12PM 41.9950 -87.3030 191° South 241 277 5,500 -960 Descending FlightAware
03:13PM 41.9850 -87.3220 235° Southwest 231 266 5,200 -720 Descending FlightAware
03:13PM 41.9810 -87.3610 262° West 218 251 5,000 -240 Descending FlightAware
03:14PM 41.9820 -87.3960 272° West 214 246 5,000  Level FlightAware
03:14PM 41.9830 -87.4360 272° West 212 244 5,000  Level FlightAware
03:15PM 41.9830 -87.4920 270° West 212 244 5,000 -120 Level FlightAware
03:15PM 41.9840 -87.5280 272° West 212 244 4,900  Descending FlightAware
03:16PM 41.9830 -87.5570 267° West 211 243 5,000 -300 Climbing FlightAware
03:16PM 41.9830 -87.6170 270° West 212 244 4,600 -900 Descending FlightAware
03:17PM 41.9840 -87.6510 272° West 212 244 4,000 -1,260 Descending FlightAware
03:17PM 41.9830 -87.6900 268° West 208 239 3,400 -840 Descending FlightAware
03:18PM 41.9840 -87.7230 272° West 189 217 3,200 -1,020 Descending FlightAware
03:18PM 41.9840 -87.7570 270° West 181 208 2,500 -1,260 Descending FlightAware
03:19PM 41.9840 -87.7910 270° West 160 184 2,000 -960 Descending FlightAware
03:19PM 41.9840 -87.8110 270° West 138 159 1,700 -720 Descending FlightAware
03:19PM 41.9840 -87.8280 270° West 135 155 1,500 -720 Descending FlightAware
03:20PM 41.9840 -87.8450 270° West 138 159 1,200 -780 Descending FlightAware
03:20PM 41.9840 -87.8740 270° West 137 158 800 -660 Descending FlightAware
03:21PM 41.9840 -87.8930 270° West 141 162 600 -600 Descending FlightAware
03:21PM 41.9840 -87.9080 270° West 84 97 -1,740 Descending FlightAware
03:22PM 41.9840 -87.9160 270° West 17 20  Level FlightAware
03:22PM 41.9830 -87.9160 180° South 24 28  Level FlightAware
03:22PM 41.9820 -87.9150 143° Southeast 28 32  Level FlightAware
03:23PM 41.9810 -87.9130 124° Southeast 16 18  Level FlightAware
03:23PM 41.9810 -87.9120 90° East 23 26  Level FlightAware